createdAt,value
2019-02-09T00:03:22.865Z,-6.61
2019-02-09T00:06:11.914Z,-6.62
2019-02-09T00:09:20.719Z,-6.62
2019-02-09T00:11:52.038Z,-6.59
2019-02-09T00:14:21.580Z,-6.54
2019-02-09T00:16:51.876Z,-6.54
2019-02-09T00:19:22.621Z,-6.58
2019-02-09T00:21:52.419Z,-6.49
2019-02-09T00:24:23.437Z,-6.62
2019-02-09T00:26:52.891Z,-6.61
2019-02-09T00:29:22.233Z,-6.61
2019-02-09T00:31:53.238Z,-6.61
2019-02-09T00:34:41.895Z,-6.52
2019-02-09T00:37:30.699Z,-6.47
2019-02-09T00:40:00.183Z,-6.47
2019-02-09T00:42:29.565Z,-6.47
2019-02-09T00:44:59.073Z,-6.53
2019-02-09T00:47:28.542Z,-6.50
2019-02-09T00:49:57.873Z,-6.42
2019-02-09T00:52:30.814Z,-6.43
2019-02-09T00:55:00.267Z,-6.51
2019-02-09T00:57:29.597Z,-6.51
2019-02-09T00:59:59.965Z,-6.46
2019-02-09T01:02:30.380Z,-6.44
2019-02-09T01:08:09.638Z,-6.45
2019-02-09T01:10:41.745Z,-6.53
2019-02-09T01:13:12.200Z,-6.51
2019-02-09T01:15:42.158Z,-6.52
2019-02-09T01:18:30.971Z,-6.47
2019-02-09T01:21:00.796Z,-6.47
2019-02-09T01:23:30.488Z,-6.51
2019-02-09T01:28:56.275Z,-6.52
2019-02-09T01:34:50.801Z,-6.49
2019-02-09T01:37:20.928Z,-6.49
2019-02-09T01:43:06.350Z,-6.53
2019-02-09T01:45:56.148Z,-6.73
2019-02-09T01:48:37.353Z,-6.78
2019-02-09T01:51:07.307Z,-6.78
2019-02-09T01:53:36.776Z,-6.68
2019-02-09T01:56:45.757Z,-6.69
2019-02-09T01:59:34.241Z,-6.64
2019-02-09T02:02:16.016Z,-6.64
2019-02-09T02:08:00.055Z,-6.56
2019-02-09T02:11:09.758Z,-6.56
2019-02-09T02:13:51.508Z,-6.50
2019-02-09T02:16:21.788Z,-6.50
2019-02-09T02:19:10.353Z,-6.40
2019-02-09T02:21:58.980Z,-6.44
2019-02-09T02:24:28.498Z,-6.44
2019-02-09T02:26:58.272Z,-6.48
2019-02-09T02:29:46.853Z,-6.50
2019-02-09T02:32:36.942Z,-6.45
2019-02-09T02:35:46.452Z,-6.45
2019-02-09T02:41:43.227Z,-6.38
2019-02-09T02:44:13.118Z,-6.38
2019-02-09T02:47:01.592Z,-6.43
2019-02-09T02:52:56.492Z,-6.58
2019-02-09T02:55:37.621Z,-6.54
2019-02-09T02:58:07.015Z,-6.54
2019-02-09T03:00:55.781Z,-6.50
2019-02-09T03:03:25.601Z,-6.50
2019-02-09T03:06:13.928Z,-6.48
2019-02-09T03:08:44.975Z,-6.38
2019-02-09T03:14:44.115Z,-6.71
2019-02-09T03:20:42.096Z,-6.86
2019-02-09T03:23:11.724Z,-6.86
2019-02-09T03:25:41.057Z,-6.88
2019-02-09T03:31:27.054Z,-6.74
2019-02-09T03:43:10.459Z,-6.48
2019-02-09T03:48:55.190Z,-6.34
2019-02-09T03:51:25.243Z,-6.31
2019-02-09T03:53:55.932Z,-6.31
2019-02-09T03:56:25.391Z,-6.27
2019-02-09T03:59:07.559Z,-6.18
2019-02-09T04:01:48.994Z,-6.14
2019-02-09T04:04:29.942Z,-6.13
2019-02-09T04:06:59.388Z,-6.13
2019-02-09T04:12:56.547Z,-6.20
2019-02-09T04:15:38.634Z,-6.19
2019-02-09T04:18:47.412Z,-6.19
2019-02-09T04:24:43.191Z,-6.13
2019-02-09T04:27:24.204Z,-6.16
2019-02-09T04:29:54.093Z,-6.16
2019-02-09T04:32:24.807Z,-6.14
2019-02-09T04:34:55.657Z,-6.14
2019-02-09T04:37:25.965Z,-6.09
2019-02-09T04:43:21.305Z,-6.04
2019-02-09T04:45:51.868Z,-6.04
2019-02-09T04:48:22.647Z,-6.04
2019-02-09T04:53:48.673Z,-6.07
2019-02-09T04:56:18.148Z,-6.08
2019-02-09T04:59:27.035Z,-6.11
2019-02-09T05:04:58.136Z,-6.08
2019-02-09T05:07:46.967Z,-6.05
2019-02-09T05:10:17.344Z,-6.05
2019-02-09T05:13:26.265Z,-6.06
2019-02-09T05:15:55.783Z,-6.06
2019-02-09T05:18:25.542Z,-6.06
2019-02-09T05:20:55.238Z,-6.11
2019-02-09T05:26:39.581Z,-6.06
2019-02-09T05:29:48.418Z,-6.15
2019-02-09T05:32:29.867Z,-6.10
2019-02-09T05:38:00.880Z,-6.10
2019-02-09T05:40:30.234Z,-6.15
2019-02-09T05:43:39.392Z,-6.14
2019-02-09T05:49:17.998Z,-6.47
2019-02-09T05:51:47.563Z,-6.36
2019-02-09T05:54:17.178Z,-6.28
2019-02-09T05:56:46.784Z,-6.21
2019-02-09T05:59:17.010Z,-6.32
2019-02-09T06:01:46.571Z,-6.25
2019-02-09T06:04:57.847Z,-6.21
2019-02-09T06:10:19.788Z,-6.25
2019-02-09T06:12:49.769Z,-6.40
2019-02-09T06:15:59.011Z,-6.34
2019-02-09T06:18:28.767Z,-6.30
2019-02-09T06:20:59.135Z,-6.25
2019-02-09T06:23:28.788Z,-6.30
2019-02-09T06:29:13.518Z,-6.30
2019-02-09T06:32:02.451Z,-6.27
2019-02-09T06:34:51.141Z,-6.28
2019-02-09T06:37:39.594Z,-6.43
2019-02-09T06:40:21.089Z,-6.38
2019-02-09T06:43:03.697Z,-6.41
2019-02-09T06:48:34.742Z,-6.42
2019-02-09T06:51:04.592Z,-6.46
2019-02-09T06:53:34.087Z,-6.43
2019-02-09T06:56:22.918Z,-6.48
2019-02-09T06:58:52.478Z,-6.38
2019-02-09T07:04:51.017Z,-6.39
2019-02-09T07:07:39.820Z,-6.35
2019-02-09T07:10:21.434Z,-6.38
2019-02-09T07:13:02.316Z,-6.36
2019-02-09T07:18:33.901Z,-6.38
2019-02-09T07:21:03.662Z,-6.41
2019-02-09T07:23:33.223Z,-6.38
2019-02-09T07:26:02.930Z,-6.47
2019-02-09T07:28:32.321Z,-6.47
2019-02-09T07:31:02.129Z,-6.43
2019-02-09T07:34:10.830Z,-6.48
2019-02-09T07:36:40.414Z,-6.53
2019-02-09T07:39:49.618Z,-6.53
2019-02-09T07:42:19.070Z,-6.52
2019-02-09T07:45:08.825Z,-6.53
2019-02-09T07:47:38.166Z,-6.53
2019-02-09T07:53:14.704Z,-6.31
2019-02-09T08:04:19.860Z,-6.05
2019-02-09T08:07:01.499Z,-6.16
2019-02-09T08:09:42.879Z,-6.07
2019-02-09T08:12:24.698Z,-6.17
2019-02-09T08:14:55.021Z,-6.17
2019-02-09T08:18:05.129Z,-6.22
2019-02-09T08:23:48.890Z,-6.08
2019-02-09T08:26:18.312Z,-5.96
2019-02-09T08:28:48.225Z,-5.96
2019-02-09T08:31:17.840Z,-5.83
2019-02-09T08:34:06.343Z,-5.75
2019-02-09T08:37:15.168Z,-5.75
2019-02-09T08:39:45.427Z,-5.58
2019-02-09T08:42:54.598Z,-5.49
2019-02-09T08:48:39.757Z,-4.78
2019-02-09T08:51:49.750Z,-4.32
2019-02-09T08:57:16.121Z,-4.16
2019-02-09T08:59:45.798Z,-4.25
2019-02-09T09:02:20.391Z,-4.56
2019-02-09T09:04:46.903Z,-4.62
2019-02-09T09:07:35.950Z,-4.28
2019-02-09T09:10:06.827Z,-4.28
2019-02-09T09:12:36.674Z,-3.97
2019-02-09T09:15:47.328Z,-3.89
2019-02-09T09:21:26.313Z,-4.13
2019-02-09T09:23:57.024Z,-4.12
2019-02-09T09:26:46.036Z,-3.89
2019-02-09T09:29:16.367Z,-3.95
2019-02-09T09:31:45.756Z,-3.66
2019-02-09T09:36:57.223Z,-4.21
2019-02-09T09:39:27.645Z,-4.64
2019-02-09T09:41:57.460Z,-4.65
2019-02-09T09:44:45.923Z,-4.56
2019-02-09T09:47:16.077Z,-4.56
2019-02-09T09:49:45.537Z,-4.56
2019-02-09T09:52:15.415Z,-4.53
2019-02-09T09:55:25.916Z,-4.57
2019-02-09T09:57:56.050Z,-4.82
2019-02-09T10:03:41.231Z,-4.63
2019-02-09T10:06:12.021Z,-4.67
2019-02-09T10:08:41.476Z,-4.64
2019-02-09T10:11:12.371Z,-4.61
2019-02-09T10:19:27.547Z,-4.86
2019-02-09T10:21:57.376Z,-5.12
2019-02-09T10:24:27.738Z,-4.87
2019-02-09T10:26:57.378Z,-4.82
2019-02-09T10:29:38.724Z,-4.83
2019-02-09T10:32:19.745Z,-4.91
2019-02-09T10:38:31.881Z,-4.86
2019-02-09T10:44:16.193Z,-5.16
2019-02-09T10:52:30.760Z,-5.08
2019-02-09T10:58:14.825Z,-4.76
2019-02-09T11:07:31.486Z,-4.91
2019-02-09T11:13:02.541Z,-5.20
2019-02-09T11:18:40.684Z,-5.08
2019-02-09T11:21:11.228Z,-5.21
2019-02-09T11:23:41.451Z,-5.20
2019-02-09T11:26:11.425Z,-5.20
2019-02-09T11:28:41.374Z,-5.28
2019-02-09T11:31:11.174Z,-5.43
2019-02-09T11:33:51.830Z,-5.55
2019-02-09T11:39:36.789Z,-5.55
2019-02-09T11:48:42.124Z,-5.49
2019-02-09T11:54:21.151Z,-5.77
2019-02-09T11:57:29.840Z,-5.77
2019-02-09T11:59:59.681Z,-5.91
2019-02-09T12:05:58.043Z,-5.92
2019-02-09T12:11:16.791Z,-5.69
2019-02-09T12:14:06.240Z,-5.92
2019-02-09T12:19:36.645Z,-5.98
2019-02-09T12:22:26.062Z,-6.00
2019-02-09T12:25:15.004Z,-6.00
2019-02-09T12:27:56.651Z,-5.97
2019-02-09T12:30:38.407Z,-6.00
2019-02-09T12:33:09.656Z,-6.00
2019-02-09T12:36:18.561Z,-6.14
2019-02-09T12:41:27.737Z,-5.94
2019-02-09T12:44:16.556Z,-6.05
2019-02-09T12:47:15.470Z,-5.94
2019-02-09T12:50:04.563Z,-5.94
2019-02-09T12:52:47.909Z,-5.94
2019-02-09T12:58:39.262Z,-6.06
2019-02-09T13:01:08.892Z,-6.06
2019-02-09T13:04:17.631Z,-6.06
2019-02-09T13:06:50.346Z,-6.09
2019-02-09T13:09:20.298Z,-6.14
2019-02-09T13:14:39.446Z,-6.31
2019-02-09T13:20:15.769Z,-6.53
2019-02-09T13:26:00.983Z,-6.82
2019-02-09T13:29:08.699Z,-6.94
2019-02-09T13:32:18.211Z,-6.94
2019-02-09T13:34:59.352Z,-6.96
2019-02-09T13:37:41.899Z,-6.89
2019-02-09T13:40:51.222Z,-6.89
2019-02-09T13:43:21.925Z,-6.96
2019-02-09T13:45:53.063Z,-6.99
2019-02-09T13:49:01.826Z,-6.92
2019-02-09T13:51:32.380Z,-7.02
2019-02-09T13:54:41.345Z,-7.07
2019-02-09T13:57:11.613Z,-6.98
2019-02-09T13:59:41.453Z,-6.95
2019-02-09T14:02:11.565Z,-6.97
2019-02-09T14:05:20.421Z,-7.09
2019-02-09T14:08:09.255Z,-7.07
2019-02-09T14:10:40.401Z,-7.11
2019-02-09T14:13:29.178Z,-7.27
2019-02-09T14:15:58.601Z,-7.27
2019-02-09T14:18:28.041Z,-7.30
2019-02-09T14:21:16.783Z,-7.30
2019-02-09T14:24:08.002Z,-7.31
2019-02-09T14:29:32.873Z,-7.32
2019-02-09T14:35:25.525Z,-7.12
2019-02-09T14:41:10.661Z,-7.26
2019-02-09T14:46:49.815Z,-7.37
2019-02-09T14:49:57.978Z,-7.29
2019-02-09T14:52:41.920Z,-7.47
2019-02-09T14:58:18.231Z,-7.34
2019-02-09T15:01:11.610Z,-7.39
2019-02-09T15:03:41.843Z,-7.39
2019-02-09T15:06:12.237Z,-7.38
2019-02-09T15:09:01.725Z,-7.56
2019-02-09T15:11:31.131Z,-7.56
2019-02-09T15:14:00.625Z,-7.53
2019-02-09T15:16:49.498Z,-7.51
2019-02-09T15:19:23.255Z,-7.53
2019-02-09T15:22:15.257Z,-7.48
2019-02-09T15:24:45.069Z,-7.48
2019-02-09T15:27:34.352Z,-7.48
2019-02-09T15:30:15.432Z,-7.53
2019-02-09T15:32:44.858Z,-7.53
2019-02-09T15:38:29.601Z,-7.67
2019-02-09T15:40:59.608Z,-7.64
2019-02-09T15:43:30.102Z,-7.61
2019-02-09T15:46:00.186Z,-7.59
2019-02-09T15:48:30.419Z,-7.59
2019-02-09T15:51:39.228Z,-7.55
2019-02-09T15:54:08.808Z,-7.51
2019-02-09T15:56:38.445Z,-7.51
2019-02-09T15:59:08.030Z,-7.53
2019-02-09T16:01:37.639Z,-7.51
2019-02-09T16:04:26.620Z,-7.51
2019-02-09T16:07:15.393Z,-7.55
2019-02-09T16:12:40.992Z,-7.53
2019-02-09T16:15:52.539Z,-7.55
2019-02-09T16:19:02.019Z,-7.63
2019-02-09T16:21:32.351Z,-7.70
2019-02-09T16:24:02.134Z,-7.66
2019-02-09T16:29:46.987Z,-7.61
2019-02-09T16:35:26.935Z,-7.63
2019-02-09T16:38:20.801Z,-7.45
2019-02-09T16:40:50.357Z,-7.45
2019-02-09T16:43:41.892Z,-7.49
2019-02-09T16:46:24.790Z,-7.73
2019-02-09T16:48:55.261Z,-7.73
2019-02-09T16:51:27.341Z,-7.61
2019-02-09T16:53:56.749Z,-7.63
2019-02-09T16:56:49.145Z,-7.62
2019-02-09T16:59:30.573Z,-7.65
2019-02-09T17:04:51.222Z,-7.63
2019-02-09T17:07:22.184Z,-7.64
2019-02-09T17:09:52.669Z,-7.69
2019-02-09T17:12:22.200Z,-7.65
2019-02-09T17:14:51.680Z,-7.59
2019-02-09T17:17:21.244Z,-7.57
2019-02-09T17:19:50.618Z,-7.60
2019-02-09T17:22:20.034Z,-7.60
2019-02-09T17:24:51.508Z,-7.67
2019-02-09T17:27:21.812Z,-7.69
2019-02-09T17:29:51.681Z,-7.63
2019-02-09T17:35:50.048Z,-7.73
2019-02-09T17:38:20.367Z,-7.67
2019-02-09T17:40:50.661Z,-7.64
2019-02-09T17:43:39.659Z,-7.66
2019-02-09T17:46:13.167Z,-7.66
2019-02-09T17:49:01.686Z,-7.72
2019-02-09T17:51:31.222Z,-7.70
2019-02-09T17:54:20.798Z,-7.66
2019-02-09T17:56:50.571Z,-7.65
2019-02-09T17:59:20.733Z,-7.70
2019-02-09T18:01:52.003Z,-7.78
2019-02-09T18:04:21.530Z,-7.71
2019-02-09T18:06:51.303Z,-7.71
2019-02-09T18:09:20.907Z,-7.69
2019-02-09T18:15:00.374Z,-7.70
2019-02-09T18:17:29.860Z,-7.69
2019-02-09T18:20:12.335Z,-7.65
2019-02-09T18:22:41.734Z,-7.59
2019-02-09T18:25:51.734Z,-7.53
2019-02-09T18:28:21.595Z,-7.61
2019-02-09T18:30:51.358Z,-7.65
2019-02-09T18:33:40.438Z,-7.60
2019-02-09T18:36:10.536Z,-7.60
2019-02-09T18:38:41.184Z,-7.58
2019-02-09T18:41:11.861Z,-7.58
2019-02-09T18:43:43.140Z,-7.61
2019-02-09T18:46:12.791Z,-7.61
2019-02-09T18:48:42.503Z,-7.59
2019-02-09T18:51:12.229Z,-7.59
2019-02-09T18:53:43.715Z,-7.57
2019-02-09T19:01:46.329Z,-7.55
2019-02-09T19:04:16.211Z,-7.58
2019-02-09T19:07:24.991Z,-7.56
2019-02-09T19:12:55.246Z,-7.54
2019-02-09T19:15:44.783Z,-7.54
2019-02-09T19:18:14.577Z,-7.59
2019-02-09T19:20:48.205Z,-7.61
2019-02-09T19:23:17.894Z,-7.60
2019-02-09T19:26:08.125Z,-7.66
2019-02-09T19:28:38.648Z,-7.66
2019-02-09T19:31:08.412Z,-7.71
2019-02-09T19:33:38.789Z,-7.65
2019-02-09T19:36:08.404Z,-7.62
2019-02-09T19:38:38.347Z,-7.67
2019-02-09T19:41:07.973Z,-7.60
2019-02-09T19:43:37.798Z,-7.63
2019-02-09T19:46:27.073Z,-7.59
2019-02-09T19:48:56.728Z,-7.59
2019-02-09T19:51:45.835Z,-7.61
2019-02-09T19:54:15.531Z,-7.61
2019-02-09T19:56:44.956Z,-7.57
2019-02-09T19:59:14.314Z,-7.59
2019-02-09T20:02:03.274Z,-7.65
2019-02-09T20:04:32.940Z,-7.65
2019-02-09T20:07:03.234Z,-7.65
2019-02-09T20:10:11.947Z,-7.69
2019-02-09T20:15:56.774Z,-7.71
2019-02-09T20:18:26.752Z,-7.74
2019-02-09T20:21:17.097Z,-7.69
2019-02-09T20:23:47.481Z,-7.65
2019-02-09T20:26:18.349Z,-7.64
2019-02-09T20:28:49.249Z,-7.68
2019-02-09T20:31:20.732Z,-7.67
2019-02-09T20:34:09.539Z,-7.64
2019-02-09T20:36:40.750Z,-7.64
2019-02-09T20:42:25.856Z,-7.72
2019-02-09T20:50:59.441Z,-7.64
2019-02-09T20:53:48.723Z,-7.64
2019-02-09T20:59:09.734Z,-7.70
2019-02-09T21:13:28.220Z,-7.66
2019-02-09T21:15:57.757Z,-7.71
2019-02-09T21:18:28.670Z,-7.75
2019-02-09T21:21:02.552Z,-7.76
2019-02-09T21:23:31.930Z,-7.72
2019-02-09T21:26:01.576Z,-7.74
2019-02-09T21:28:31.306Z,-7.77
2019-02-09T21:31:01.125Z,-7.73
2019-02-09T21:33:49.533Z,-7.76
2019-02-09T21:39:33.867Z,-7.77
2019-02-09T21:42:02.854Z,-7.77
2019-02-09T21:45:11.667Z,-7.76
2019-02-09T21:50:43.557Z,-7.73
2019-02-09T21:53:13.361Z,-7.70
2019-02-09T21:56:22.427Z,-7.65
2019-02-09T22:01:54.072Z,-7.69
2019-02-09T22:04:27.137Z,-7.70
2019-02-09T22:06:58.331Z,-7.60
2019-02-09T22:09:29.748Z,-7.60
2019-02-09T22:12:41.812Z,-7.63
2019-02-09T22:18:13.817Z,-7.64
2019-02-09T22:20:52.606Z,-7.66
2019-02-09T22:23:16.720Z,-7.66
2019-02-09T22:25:46.589Z,-7.65
2019-02-09T22:28:55.375Z,-7.56
2019-02-09T22:31:25.940Z,-7.50
2019-02-09T22:33:56.102Z,-7.56
2019-02-09T22:36:25.868Z,-7.56
2019-02-09T22:38:56.097Z,-7.55
2019-02-09T22:41:25.867Z,-7.49
2019-02-09T22:49:52.609Z,-7.44
2019-02-09T22:55:01.871Z,-7.41
2019-02-09T22:57:33.269Z,-7.37
2019-02-09T23:02:59.700Z,-7.34
2019-02-09T23:06:08.140Z,-7.38
2019-02-09T23:08:48.032Z,-7.40
2019-02-09T23:19:37.834Z,-7.32
2019-02-09T23:22:07.447Z,-7.36
2019-02-09T23:24:37.233Z,-7.34
2019-02-09T23:27:46.484Z,-7.42
2019-02-09T23:30:55.272Z,-7.35
2019-02-09T23:33:26.166Z,-7.36
2019-02-09T23:36:16.545Z,-7.29
2019-02-09T23:38:46.716Z,-7.29
2019-02-09T23:41:16.925Z,-7.25
2019-02-09T23:43:47.321Z,-7.20
2019-02-09T23:46:16.984Z,-7.18
2019-02-09T23:49:06.194Z,-7.13
2019-02-09T23:51:35.713Z,-7.13
2019-02-09T23:54:26.104Z,-7.05
2019-02-09T23:56:56.283Z,-7.05
2019-02-09T23:59:45.827Z,-7.03
